Pingree, North Dakota
Current Conditions -  °F | °C
As of 2:56 PM on Tuesday 21 Oct 2014 (Local Time) from KJMS Reporting Station
Clear Clear  
Wind Chill: 73°   Ceiling: Unl
Heat Index: 73°   Visibility: 10mi
Dew Point: 42°   Wind: 22mph
Humidity: 33%   Direction: 140°SE
Pressure: 29.79"   Gusts: 31mph
Location:  47.16°N, 98.91°W
Report Text: KJMS 211956Z AUTO 14019G27KT 10SM CLR 23/06 A2979 RMK AO2 PK WND 15027/1952 SLP087 T02280056
Loading
Personal Weather Stations






























Interactive Weather Map
Tropical Storm Tracking
New forecast layout! Learn more

10-Day Weather Forecast

Advertisements
Track Severe Weather on mobile